sensor_id;sensor_type;location;lat;lon;timestamp;pressure;altitude;pressure_sealevel;temperature;humidity
15294;BME280;7748;52.474;13.454;2022-09-30T00:01:30;58734.78;;;-145.20;100.00
15294;BME280;7748;52.474;13.454;2022-09-30T00:04:02;58734.78;;;-145.20;100.00
15294;BME280;7748;52.474;13.454;2022-09-30T00:06:30;58734.78;;;-145.20;100.00
15294;BME280;7748;52.474;13.454;2022-09-30T00:09:01;58734.78;;;-145.20;100.00
15294;BME280;7748;52.474;13.454;2022-09-30T00:11:31;58734.78;;;-145.20;100.00
15294;BME280;7748;52.474;13.454;2022-09-30T00:13:59;58734.78;;;-145.20;100.00
15294;BME280;7748;52.474;13.454;2022-09-30T00:16:30;58734.78;;;-145.20;100.00
15294;BME280;7748;52.474;13.454;2022-09-30T00:18:59;58734.78;;;-145.20;100.00
15294;BME280;7748;52.474;13.454;2022-09-30T00:21:31;58734.78;;;-145.20;100.00
15294;BME280;7748;52.474;13.454;2022-09-30T00:24:00;58734.78;;;-145.20;100.00
15294;BME280;7748;52.474;13.454;2022-09-30T00:26:28;58734.78;;;-145.20;100.00
15294;BME280;7748;52.474;13.454;2022-09-30T00:28:58;58734.78;;;-145.20;100.00
15294;BME280;7748;52.474;13.454;2022-09-30T00:31:28;58734.78;;;-145.20;100.00
15294;BME280;7748;52.474;13.454;2022-09-30T00:33:56;58734.78;;;-145.20;100.00
15294;BME280;7748;52.474;13.454;2022-09-30T00:36:37;58734.78;;;-145.20;100.00
15294;BME280;7748;52.474;13.454;2022-09-30T00:39:08;58734.78;;;-145.20;100.00
15294;BME280;7748;52.474;13.454;2022-09-30T00:41:36;58734.78;;;-145.20;100.00
15294;BME280;7748;52.474;13.454;2022-09-30T00:47:36;58734.78;;;-145.20;100.00
15294;BME280;7748;52.474;13.454;2022-09-30T00:50:12;58734.78;;;-145.20;100.00
15294;BME280;7748;52.474;13.454;2022-09-30T00:52:46;58734.78;;;-145.20;100.00
15294;BME280;7748;52.474;13.454;2022-09-30T00:55:24;58734.78;;;-145.20;100.00
15294;BME280;7748;52.474;13.454;2022-09-30T00:57:54;58734.78;;;-145.20;100.00
15294;BME280;7748;52.474;13.454;2022-09-30T01:00:23;58734.78;;;-145.20;100.00
15294;BME280;7748;52.474;13.454;2022-09-30T01:02:51;58734.78;;;-145.20;100.00
15294;BME280;7748;52.474;13.454;2022-09-30T01:05:19;58734.78;;;-145.20;100.00
15294;BME280;7748;52.474;13.454;2022-09-30T01:07:48;58734.78;;;-145.20;100.00
15294;BME280;7748;52.474;13.454;2022-09-30T01:10:16;58734.78;;;-145.20;100.00
15294;BME280;7748;52.474;13.454;2022-09-30T01:12:44;58734.78;;;-145.20;100.00
15294;BME280;7748;52.474;13.454;2022-09-30T01:15:12;58734.78;;;-145.20;100.00
15294;BME280;7748;52.474;13.454;2022-09-30T01:17:47;58734.78;;;-145.20;100.00
15294;BME280;7748;52.474;13.454;2022-09-30T01:23:41;58734.78;;;-145.20;100.00
15294;BME280;7748;52.474;13.454;2022-09-30T01:29:30;58734.78;;;-145.20;100.00
15294;BME280;7748;52.474;13.454;2022-09-30T01:32:03;58734.78;;;-145.20;100.00
15294;BME280;7748;52.474;13.454;2022-09-30T01:34:41;58734.78;;;-145.20;100.00
15294;BME280;7748;52.474;13.454;2022-09-30T01:37:19;58734.78;;;-145.20;100.00
15294;BME280;7748;52.474;13.454;2022-09-30T01:40:01;58734.78;;;-145.20;100.00
15294;BME280;7748;52.474;13.454;2022-09-30T01:42:36;58734.78;;;-145.20;100.00
15294;BME280;7748;52.474;13.454;2022-09-30T01:45:08;58734.78;;;-145.20;100.00
15294;BME280;7748;52.474;13.454;2022-09-30T01:47:47;58734.78;;;-145.20;100.00
15294;BME280;7748;52.474;13.454;2022-09-30T01:50:19;58734.78;;;-145.20;100.00
15294;BME280;7748;52.474;13.454;2022-09-30T01:52:53;58734.78;;;-145.20;100.00
15294;BME280;7748;52.474;13.454;2022-09-30T01:55:26;58734.78;;;-145.20;100.00
15294;BME280;7748;52.474;13.454;2022-09-30T01:57:58;58734.78;;;-145.20;100.00
15294;BME280;7748;52.474;13.454;2022-09-30T02:00:30;58734.78;;;-145.20;100.00
15294;BME280;7748;52.474;13.454;2022-09-30T02:03:05;58734.78;;;-145.20;100.00
15294;BME280;7748;52.474;13.454;2022-09-30T02:05:40;58734.78;;;-145.20;100.00
15294;BME280;7748;52.474;13.454;2022-09-30T02:08:14;58734.78;;;-145.20;100.00
15294;BME280;7748;52.474;13.454;2022-09-30T02:10:47;58734.78;;;-145.20;100.00
15294;BME280;7748;52.474;13.454;2022-09-30T02:13:20;58734.78;;;-145.20;100.00
15294;BME280;7748;52.474;13.454;2022-09-30T02:15:55;58734.78;;;-145.20;100.00
15294;BME280;7748;52.474;13.454;2022-09-30T02:18:30;58734.78;;;-145.20;100.00
15294;BME280;7748;52.474;13.454;2022-09-30T02:21:02;58734.78;;;-145.20;100.00
15294;BME280;7748;52.474;13.454;2022-09-30T02:23:34;58734.78;;;-145.20;100.00
15294;BME280;7748;52.474;13.454;2022-09-30T02:26:08;58734.78;;;-145.20;100.00
15294;BME280;7748;52.474;13.454;2022-09-30T02:28:41;58734.78;;;-145.20;100.00
15294;BME280;7748;52.474;13.454;2022-09-30T02:31:13;58734.78;;;-145.20;100.00
15294;BME280;7748;52.474;13.454;2022-09-30T02:33:47;58734.78;;;-145.20;100.00
15294;BME280;7748;52.474;13.454;2022-09-30T02:36:20;58734.78;;;-145.20;100.00
15294;BME280;7748;52.474;13.454;2022-09-30T02:38:57;58734.78;;;-145.20;100.00
15294;BME280;7748;52.474;13.454;2022-09-30T02:41:29;58734.78;;;-145.20;100.00
15294;BME280;7748;52.474;13.454;2022-09-30T02:44:00;58734.78;;;-145.20;100.00
15294;BME280;7748;52.474;13.454;2022-09-30T02:46:38;58734.78;;;-145.20;100.00
15294;BME280;7748;52.474;13.454;2022-09-30T02:49:17;58734.78;;;-145.20;100.00
15294;BME280;7748;52.474;13.454;2022-09-30T02:51:57;58734.78;;;-145.20;100.00
15294;BME280;7748;52.474;13.454;2022-09-30T02:54:31;58734.78;;;-145.20;100.00
15294;BME280;7748;52.474;13.454;2022-09-30T02:57:06;58734.78;;;-145.20;100.00
15294;BME280;7748;52.474;13.454;2022-09-30T02:59:41;58734.78;;;-145.20;100.00
15294;BME280;7748;52.474;13.454;2022-09-30T03:02:09;58734.78;;;-145.20;100.00
15294;BME280;7748;52.474;13.454;2022-09-30T03:04:39;58734.78;;;-145.20;100.00
15294;BME280;7748;52.474;13.454;2022-09-30T03:07:08;58734.78;;;-145.20;100.00
15294;BME280;7748;52.474;13.454;2022-09-30T03:09:36;58734.78;;;-145.20;100.00
15294;BME280;7748;52.474;13.454;2022-09-30T03:12:13;58734.78;;;-145.20;100.00
15294;BME280;7748;52.474;13.454;2022-09-30T03:14:57;58734.78;;;-145.20;100.00
15294;BME280;7748;52.474;13.454;2022-09-30T03:20:33;58734.78;;;-145.20;100.00
15294;BME280;7748;52.474;13.454;2022-09-30T03:23:15;58734.78;;;-145.20;100.00
15294;BME280;7748;52.474;13.454;2022-09-30T03:25:54;58734.78;;;-145.20;100.00
15294;BME280;7748;52.474;13.454;2022-09-30T03:28:27;58734.78;;;-145.20;100.00
15294;BME280;7748;52.474;13.454;2022-09-30T03:31:03;58734.78;;;-145.20;100.00
15294;BME280;7748;52.474;13.454;2022-09-30T03:33:38;58734.78;;;-145.20;100.00
15294;BME280;7748;52.474;13.454;2022-09-30T03:36:14;58734.78;;;-145.20;100.00
15294;BME280;7748;52.474;13.454;2022-09-30T03:38:51;58734.78;;;-145.20;100.00
15294;BME280;7748;52.474;13.454;2022-09-30T03:41:28;58734.78;;;-145.20;100.00
15294;BME280;7748;52.474;13.454;2022-09-30T03:44:01;58734.78;;;-145.20;100.00
15294;BME280;7748;52.474;13.454;2022-09-30T03:46:33;58734.78;;;-145.20;100.00
15294;BME280;7748;52.474;13.454;2022-09-30T03:49:06;58734.78;;;-145.20;100.00
15294;BME280;7748;52.474;13.454;2022-09-30T03:51:38;58734.78;;;-145.20;100.00
15294;BME280;7748;52.474;13.454;2022-09-30T03:54:07;58734.78;;;-145.20;100.00
15294;BME280;7748;52.474;13.454;2022-09-30T03:56:37;58734.78;;;-145.20;100.00
15294;BME280;7748;52.474;13.454;2022-09-30T03:59:10;58734.78;;;-145.20;100.00
15294;BME280;7748;52.474;13.454;2022-09-30T04:01:38;58734.78;;;-145.20;100.00
15294;BME280;7748;52.474;13.454;2022-09-30T04:04:06;58734.78;;;-145.20;100.00
15294;BME280;7748;52.474;13.454;2022-09-30T04:06:34;58734.78;;;-145.20;100.00
15294;BME280;7748;52.474;13.454;2022-09-30T04:09:03;58734.78;;;-145.20;100.00
15294;BME280;7748;52.474;13.454;2022-09-30T04:11:31;58734.78;;;-145.20;100.00
15294;BME280;7748;52.474;13.454;2022-09-30T04:13:59;58734.78;;;-145.20;100.00
15294;BME280;7748;52.474;13.454;2022-09-30T04:16:28;58734.78;;;-145.20;100.00
15294;BME280;7748;52.474;13.454;2022-09-30T04:18:56;58734.78;;;-145.20;100.00
15294;BME280;7748;52.474;13.454;2022-09-30T04:21:25;58734.78;;;-145.20;100.00
15294;BME280;7748;52.474;13.454;2022-09-30T04:23:54;58734.78;;;-145.20;100.00
15294;BME280;7748;52.474;13.454;2022-09-30T04:26:23;58734.78;;;-145.20;100.00
15294;BME280;7748;52.474;13.454;2022-09-30T04:28:53;58734.78;;;-145.20;100.00
15294;BME280;7748;52.474;13.454;2022-09-30T04:31:24;58734.78;;;-145.20;100.00
15294;BME280;7748;52.474;13.454;2022-09-30T04:33:56;58734.78;;;-145.20;100.00
15294;BME280;7748;52.474;13.454;2022-09-30T04:41:05;58734.78;;;-145.20;100.00
15294;BME280;7748;52.474;13.454;2022-09-30T04:43:34;58734.78;;;-145.20;100.00
15294;BME280;7748;52.474;13.454;2022-09-30T04:46:05;58734.78;;;-145.20;100.00
15294;BME280;7748;52.474;13.454;2022-09-30T04:48:33;58734.78;;;-145.20;100.00
15294;BME280;7748;52.474;13.454;2022-09-30T04:51:07;58734.78;;;-145.20;100.00
15294;BME280;7748;52.474;13.454;2022-09-30T04:53:36;58734.78;;;-145.20;100.00
15294;BME280;7748;52.474;13.454;2022-09-30T04:56:12;58734.78;;;-145.20;100.00
15294;BME280;7748;52.474;13.454;2022-09-30T04:58:43;58734.78;;;-145.20;100.00
15294;BME280;7748;52.474;13.454;2022-09-30T05:01:14;58734.78;;;-145.20;100.00
15294;BME280;7748;52.474;13.454;2022-09-30T05:03:43;58734.78;;;-145.20;100.00
15294;BME280;7748;52.474;13.454;2022-09-30T05:06:12;58734.78;;;-145.20;100.00
15294;BME280;7748;52.474;13.454;2022-09-30T05:08:41;58734.78;;;-145.20;100.00
15294;BME280;7748;52.474;13.454;2022-09-30T05:11:14;58734.78;;;-145.20;100.00
15294;BME280;7748;52.474;13.454;2022-09-30T05:13:45;58734.78;;;-145.20;100.00
15294;BME280;7748;52.474;13.454;2022-09-30T05:16:14;58734.78;;;-145.20;100.00
15294;BME280;7748;52.474;13.454;2022-09-30T05:18:42;58734.78;;;-145.20;100.00
15294;BME280;7748;52.474;13.454;2022-09-30T05:21:13;58734.78;;;-145.20;100.00
15294;BME280;7748;52.474;13.454;2022-09-30T05:23:41;58734.78;;;-145.20;100.00
15294;BME280;7748;52.474;13.454;2022-09-30T05:26:09;58734.78;;;-145.20;100.00
15294;BME280;7748;52.474;13.454;2022-09-30T05:28:38;58734.78;;;-145.20;100.00
15294;BME280;7748;52.474;13.454;2022-09-30T05:31:09;58734.78;;;-145.20;100.00
15294;BME280;7748;52.474;13.454;2022-09-30T05:33:38;58734.78;;;-145.20;100.00
15294;BME280;7748;52.474;13.454;2022-09-30T05:36:09;58734.78;;;-145.20;100.00
15294;BME280;7748;52.474;13.454;2022-09-30T05:38:38;58734.78;;;-145.20;100.00
15294;BME280;7748;52.474;13.454;2022-09-30T05:41:08;58734.78;;;-145.20;100.00
15294;BME280;7748;52.474;13.454;2022-09-30T05:43:37;58734.78;;;-145.20;100.00
15294;BME280;7748;52.474;13.454;2022-09-30T05:46:06;58734.78;;;-145.20;100.00
15294;BME280;7748;52.474;13.454;2022-09-30T05:48:35;58734.78;;;-145.20;100.00
15294;BME280;7748;52.474;13.454;2022-09-30T05:51:03;58734.78;;;-145.20;100.00
15294;BME280;7748;52.474;13.454;2022-09-30T05:53:35;58734.78;;;-145.20;100.00
15294;BME280;7748;52.474;13.454;2022-09-30T05:56:05;58734.78;;;-145.20;100.00
15294;BME280;7748;52.474;13.454;2022-09-30T05:58:34;58734.78;;;-145.20;100.00
15294;BME280;7748;52.474;13.454;2022-09-30T06:01:04;58734.78;;;-145.20;100.00
15294;BME280;7748;52.474;13.454;2022-09-30T06:03:41;58734.78;;;-145.20;100.00
15294;BME280;7748;52.474;13.454;2022-09-30T06:06:10;58734.78;;;-145.20;100.00
15294;BME280;7748;52.474;13.454;2022-09-30T06:08:39;58734.78;;;-145.20;100.00
15294;BME280;7748;52.474;13.454;2022-09-30T06:11:11;58734.78;;;-145.20;100.00
15294;BME280;7748;52.474;13.454;2022-09-30T06:13:40;58734.78;;;-145.20;100.00
15294;BME280;7748;52.474;13.454;2022-09-30T06:16:10;58734.78;;;-145.20;100.00
15294;BME280;7748;52.474;13.454;2022-09-30T06:18:38;58734.78;;;-145.20;100.00
15294;BME280;7748;52.474;13.454;2022-09-30T06:21:10;58734.78;;;-145.20;100.00
15294;BME280;7748;52.474;13.454;2022-09-30T06:23:39;58734.78;;;-145.20;100.00
15294;BME280;7748;52.474;13.454;2022-09-30T06:26:10;58734.78;;;-145.20;100.00
15294;BME280;7748;52.474;13.454;2022-09-30T06:28:41;58734.78;;;-145.20;100.00
15294;BME280;7748;52.474;13.454;2022-09-30T06:31:11;58734.78;;;-145.20;100.00
15294;BME280;7748;52.474;13.454;2022-09-30T06:33:40;58734.78;;;-145.20;100.00
15294;BME280;7748;52.474;13.454;2022-09-30T06:36:10;58734.78;;;-145.20;100.00
15294;BME280;7748;52.474;13.454;2022-09-30T06:38:38;58734.78;;;-145.20;100.00
15294;BME280;7748;52.474;13.454;2022-09-30T06:41:07;58734.78;;;-145.20;100.00
15294;BME280;7748;52.474;13.454;2022-09-30T06:43:40;58734.78;;;-145.20;100.00
15294;BME280;7748;52.474;13.454;2022-09-30T06:52:14;100724.94;;;7.92;100.00
15294;BME280;7748;52.474;13.454;2022-09-30T06:54:42;100738.69;;;7.91;100.00
15294;BME280;7748;52.474;13.454;2022-09-30T06:57:12;100733.03;;;7.99;100.00
15294;BME280;7748;52.474;13.454;2022-09-30T06:59:47;100735.28;;;8.11;100.00
15294;BME280;7748;52.474;13.454;2022-09-30T07:02:18;100732.03;;;8.15;100.00
15294;BME280;7748;52.474;13.454;2022-09-30T07:04:50;100728.19;;;8.27;100.00
15294;BME280;7748;52.474;13.454;2022-09-30T07:07:19;100738.41;;;8.43;100.00
15294;BME280;7748;52.474;13.454;2022-09-30T07:09:47;100728.38;;;8.51;100.00
15294;BME280;7748;52.474;13.454;2022-09-30T07:12:17;100734.97;;;8.63;100.00
15294;BME280;7748;52.474;13.454;2022-09-30T07:14:45;100730.91;;;8.70;100.00
15294;BME280;7748;52.474;13.454;2022-09-30T07:17:17;100737.69;;;8.67;100.00
15294;BME280;7748;52.474;13.454;2022-09-30T07:19:45;100738.50;;;8.87;100.00
15294;BME280;7748;52.474;13.454;2022-09-30T07:22:15;100733.38;;;8.88;100.00
15294;BME280;7748;52.474;13.454;2022-09-30T07:25:03;100733.75;;;8.97;100.00
15294;BME280;7748;52.474;13.454;2022-09-30T07:27:32;100731.25;;;9.00;100.00
15294;BME280;7748;52.474;13.454;2022-09-30T07:30:00;100736.97;;;9.13;100.00
15294;BME280;7748;52.474;13.454;2022-09-30T07:32:46;100738.28;;;9.24;100.00
15294;BME280;7748;52.474;13.454;2022-09-30T07:35:14;100740.50;;;9.15;100.00
15294;BME280;7748;52.474;13.454;2022-09-30T07:37:43;100736.66;;;9.27;100.00
15294;BME280;7748;52.474;13.454;2022-09-30T07:40:19;100736.16;;;9.36;100.00
15294;BME280;7748;52.474;13.454;2022-09-30T07:42:50;100741.59;;;9.42;100.00
15294;BME280;7748;52.474;13.454;2022-09-30T07:45:20;100741.94;;;9.52;100.00
15294;BME280;7748;52.474;13.454;2022-09-30T07:47:57;100735.44;;;9.63;100.00
15294;BME280;7748;52.474;13.454;2022-09-30T07:50:29;100734.97;;;9.73;100.00
15294;BME280;7748;52.474;13.454;2022-09-30T07:53:09;100733.16;;;9.71;100.00
15294;BME280;7748;52.474;13.454;2022-09-30T07:55:50;100729.06;;;9.77;100.00
15294;BME280;7748;52.474;13.454;2022-09-30T07:58:24;100732.56;;;9.79;100.00
15294;BME280;7748;52.474;13.454;2022-09-30T08:00:54;100746.19;;;9.96;100.00
15294;BME280;7748;52.474;13.454;2022-09-30T08:03:23;100746.47;;;10.04;100.00
15294;BME280;7748;52.474;13.454;2022-09-30T08:06:05;100755.28;;;10.31;100.00
15294;BME280;7748;52.474;13.454;2022-09-30T08:08:41;100754.34;;;10.29;100.00
15294;BME280;7748;52.474;13.454;2022-09-30T08:11:11;100762.13;;;10.29;100.00
15294;BME280;7748;52.474;13.454;2022-09-30T08:13:40;100764.44;;;10.46;100.00
15294;BME280;7748;52.474;13.454;2022-09-30T08:16:08;100761.91;;;10.47;100.00
15294;BME280;7748;52.474;13.454;2022-09-30T08:18:36;100759.88;;;10.64;100.00
15294;BME280;7748;52.474;13.454;2022-09-30T08:21:05;100762.69;;;10.70;100.00
15294;BME280;7748;52.474;13.454;2022-09-30T08:23:45;100763.09;;;10.83;100.00
15294;BME280;7748;52.474;13.454;2022-09-30T08:26:37;100759.22;;;10.97;100.00
15294;BME280;7748;52.474;13.454;2022-09-30T08:29:06;100765.50;;;11.04;100.00
15294;BME280;7748;52.474;13.454;2022-09-30T08:32:02;100761.41;;;11.10;100.00
15294;BME280;7748;52.474;13.454;2022-09-30T08:34:33;100766.59;;;11.10;100.00
15294;BME280;7748;52.474;13.454;2022-09-30T08:37:04;100752.06;;;11.17;100.00
15294;BME280;7748;52.474;13.454;2022-09-30T08:39:36;100757.38;;;11.20;100.00
15294;BME280;7748;52.474;13.454;2022-09-30T08:42:31;100762.69;;;11.23;100.00
15294;BME280;7748;52.474;13.454;2022-09-30T08:45:14;100766.63;;;11.39;100.00
15294;BME280;7748;52.474;13.454;2022-09-30T08:47:52;100773.25;;;11.56;100.00
15294;BME280;7748;52.474;13.454;2022-09-30T08:50:29;100769.00;;;11.60;100.00
15294;BME280;7748;52.474;13.454;2022-09-30T08:53:02;100765.59;;;11.61;100.00
15294;BME280;7748;52.474;13.454;2022-09-30T08:55:37;100769.25;;;11.68;100.00
15294;BME280;7748;52.474;13.454;2022-09-30T08:58:15;100763.38;;;11.75;100.00
15294;BME280;7748;52.474;13.454;2022-09-30T09:00:48;100770.53;;;11.82;100.00
15294;BME280;7748;52.474;13.454;2022-09-30T09:03:26;100767.53;;;11.97;100.00
15294;BME280;7748;52.474;13.454;2022-09-30T09:06:02;100765.06;;;12.33;100.00
15294;BME280;7748;52.474;13.454;2022-09-30T09:08:46;100762.66;;;12.39;100.00
15294;BME280;7748;52.474;13.454;2022-09-30T09:11:34;100762.28;;;12.59;100.00
15294;BME280;7748;52.474;13.454;2022-09-30T09:14:20;100769.09;;;12.54;100.00
15294;BME280;7748;52.474;13.454;2022-09-30T09:17:02;100760.69;;;12.64;100.00
15294;BME280;7748;52.474;13.454;2022-09-30T09:19:46;100758.16;;;12.67;100.00
15294;BME280;7748;52.474;13.454;2022-09-30T09:22:20;100764.44;;;12.75;100.00
15294;BME280;7748;52.474;13.454;2022-09-30T09:24:51;100769.72;;;12.78;100.00
15294;BME280;7748;52.474;13.454;2022-09-30T09:27:25;100766.19;;;12.75;100.00
15294;BME280;7748;52.474;13.454;2022-09-30T09:30:08;100753.25;;;12.79;100.00
15294;BME280;7748;52.474;13.454;2022-09-30T09:32:41;100761.22;;;12.85;100.00
15294;BME280;7748;52.474;13.454;2022-09-30T09:35:14;100753.66;;;12.96;100.00
15294;BME280;7748;52.474;13.454;2022-09-30T09:37:50;100755.50;;;13.00;100.00
15294;BME280;7748;52.474;13.454;2022-09-30T09:40:45;100764.56;;;13.15;100.00
15294;BME280;7748;52.474;13.454;2022-09-30T09:43:28;100765.53;;;13.20;100.00
15294;BME280;7748;52.474;13.454;2022-09-30T09:46:10;100753.59;;;13.28;100.00
15294;BME280;7748;52.474;13.454;2022-09-30T09:48:40;100754.75;;;13.41;100.00
15294;BME280;7748;52.474;13.454;2022-09-30T09:51:15;100748.81;;;13.48;100.00
15294;BME280;7748;52.474;13.454;2022-09-30T09:53:50;100753.31;;;13.54;100.00
15294;BME280;7748;52.474;13.454;2022-09-30T09:56:20;58734.78;;;-145.20;100.00
15294;BME280;7748;52.474;13.454;2022-09-30T09:59:09;58734.78;;;-145.20;100.00
15294;BME280;7748;52.474;13.454;2022-09-30T10:01:43;58734.78;;;-145.20;100.00
15294;BME280;7748;52.474;13.454;2022-09-30T10:04:16;58734.78;;;-145.20;100.00
15294;BME280;7748;52.474;13.454;2022-09-30T10:06:48;58734.78;;;-145.20;100.00
15294;BME280;7748;52.474;13.454;2022-09-30T10:09:29;58734.78;;;-145.20;100.00
15294;BME280;7748;52.474;13.454;2022-09-30T10:12:25;58734.78;;;-145.20;100.00
15294;BME280;7748;52.474;13.454;2022-09-30T10:15:14;58734.78;;;-145.20;100.00
15294;BME280;7748;52.474;13.454;2022-09-30T10:17:55;58734.78;;;-145.20;100.00
15294;BME280;7748;52.474;13.454;2022-09-30T10:20:29;58734.78;;;-145.20;100.00
15294;BME280;7748;52.474;13.454;2022-09-30T10:23:08;58734.78;;;-145.20;100.00
15294;BME280;7748;52.474;13.454;2022-09-30T10:25:36;58734.78;;;-145.20;100.00
15294;BME280;7748;52.474;13.454;2022-09-30T10:28:20;58734.78;;;-145.20;100.00
15294;BME280;7748;52.474;13.454;2022-09-30T10:30:53;58734.78;;;-145.20;100.00
15294;BME280;7748;52.474;13.454;2022-09-30T10:33:27;58734.78;;;-145.20;100.00
15294;BME280;7748;52.474;13.454;2022-09-30T10:36:02;58734.78;;;-145.20;100.00
15294;BME280;7748;52.474;13.454;2022-09-30T10:38:31;58734.78;;;-145.20;100.00
15294;BME280;7748;52.474;13.454;2022-09-30T10:41:02;58734.78;;;-145.20;100.00
15294;BME280;7748;52.474;13.454;2022-09-30T10:43:38;58734.78;;;-145.20;100.00
15294;BME280;7748;52.474;13.454;2022-09-30T10:46:08;58734.78;;;-145.20;100.00
15294;BME280;7748;52.474;13.454;2022-09-30T10:48:54;58734.78;;;-145.20;100.00
15294;BME280;7748;52.474;13.454;2022-09-30T10:51:29;58734.78;;;-145.20;100.00
15294;BME280;7748;52.474;13.454;2022-09-30T10:53:59;58734.78;;;-145.20;100.00
15294;BME280;7748;52.474;13.454;2022-09-30T10:56:33;58734.78;;;-145.20;100.00
15294;BME280;7748;52.474;13.454;2022-09-30T10:59:04;58734.78;;;-145.20;100.00
15294;BME280;7748;52.474;13.454;2022-09-30T11:01:36;58734.78;;;-145.20;100.00
15294;BME280;7748;52.474;13.454;2022-09-30T11:04:16;100700.03;;;14.81;100.00
15294;BME280;7748;52.474;13.454;2022-09-30T11:06:48;100695.69;;;14.81;100.00
15294;BME280;7748;52.474;13.454;2022-09-30T11:09:23;100694.13;;;14.94;100.00
15294;BME280;7748;52.474;13.454;2022-09-30T11:11:56;100694.19;;;14.99;100.00
15294;BME280;7748;52.474;13.454;2022-09-30T11:14:31;100686.25;;;14.92;100.00
15294;BME280;7748;52.474;13.454;2022-09-30T11:17:09;100691.59;;;15.00;100.00
15294;BME280;7748;52.474;13.454;2022-09-30T11:19:53;100690.16;;;15.22;100.00
15294;BME280;7748;52.474;13.454;2022-09-30T11:22:31;100692.97;;;15.34;100.00
15294;BME280;7748;52.474;13.454;2022-09-30T11:25:00;100680.97;;;15.52;100.00
15294;BME280;7748;52.474;13.454;2022-09-30T11:27:50;100684.69;;;15.69;100.00
15294;BME280;7748;52.474;13.454;2022-09-30T11:30:25;100672.53;;;15.71;100.00
15294;BME280;7748;52.474;13.454;2022-09-30T11:33:10;100677.47;;;15.50;100.00
15294;BME280;7748;52.474;13.454;2022-09-30T11:35:53;100674.06;;;15.57;100.00
15294;BME280;7748;52.474;13.454;2022-09-30T11:38:37;100675.00;;;15.62;100.00
15294;BME280;7748;52.474;13.454;2022-09-30T11:41:15;100672.47;;;15.70;100.00
15294;BME280;7748;52.474;13.454;2022-09-30T11:43:55;100669.84;;;15.68;100.00
15294;BME280;7748;52.474;13.454;2022-09-30T11:46:41;100665.66;;;15.83;100.00
15294;BME280;7748;52.474;13.454;2022-09-30T11:49:26;100672.81;;;15.94;100.00
15294;BME280;7748;52.474;13.454;2022-09-30T11:52:07;100656.25;;;15.97;100.00
15294;BME280;7748;52.474;13.454;2022-09-30T11:54:59;100672.00;;;16.03;100.00
15294;BME280;7748;52.474;13.454;2022-09-30T11:57:48;58734.78;;;-145.20;100.00
15294;BME280;7748;52.474;13.454;2022-09-30T12:00:19;100666.78;;;16.02;100.00
15294;BME280;7748;52.474;13.454;2022-09-30T12:02:49;100678.03;;;15.96;100.00
15294;BME280;7748;52.474;13.454;2022-09-30T12:05:21;100673.56;;;15.87;100.00
15294;BME280;7748;52.474;13.454;2022-09-30T12:07:57;100667.75;;;16.11;100.00
15294;BME280;7748;52.474;13.454;2022-09-30T12:10:32;100664.19;;;16.06;100.00
15294;BME280;7748;52.474;13.454;2022-09-30T12:13:05;100680.88;;;16.16;100.00
15294;BME280;7748;52.474;13.454;2022-09-30T12:15:40;100668.34;;;15.87;100.00
15294;BME280;7748;52.474;13.454;2022-09-30T12:18:12;100670.28;;;16.05;100.00
15294;BME280;7748;52.474;13.454;2022-09-30T12:20:43;100666.84;;;16.09;100.00
15294;BME280;7748;52.474;13.454;2022-09-30T12:23:19;100670.41;;;16.17;100.00
15294;BME280;7748;52.474;13.454;2022-09-30T12:25:51;100659.22;;;16.34;100.00
15294;BME280;7748;52.474;13.454;2022-09-30T12:28:28;100664.50;;;16.40;100.00
15294;BME280;7748;52.474;13.454;2022-09-30T12:34:32;100663.53;;;16.27;100.00
15294;BME280;7748;52.474;13.454;2022-09-30T12:37:24;100667.03;;;16.28;100.00
15294;BME280;7748;52.474;13.454;2022-09-30T12:40:14;100664.41;;;16.31;100.00
15294;BME280;7748;52.474;13.454;2022-09-30T12:43:05;100670.53;;;16.30;100.00
15294;BME280;7748;52.474;13.454;2022-09-30T12:48:44;100659.25;;;16.37;100.00
15294;BME280;7748;52.474;13.454;2022-09-30T12:51:24;100664.50;;;16.40;100.00
15294;BME280;7748;52.474;13.454;2022-09-30T12:53:58;100661.88;;;16.40;100.00
15294;BME280;7748;52.474;13.454;2022-09-30T12:56:31;100667.97;;;16.36;100.00
15294;BME280;7748;52.474;13.454;2022-09-30T12:58:59;100671.25;;;16.13;100.00
15294;BME280;7748;52.474;13.454;2022-09-30T13:01:30;100672.81;;;15.96;100.00
15294;BME280;7748;52.474;13.454;2022-09-30T13:04:15;100662.09;;;15.74;100.00
15294;BME280;7748;52.474;13.454;2022-09-30T13:07:12;100663.75;;;15.69;100.00
15294;BME280;7748;52.474;13.454;2022-09-30T13:10:00;100669.25;;;15.88;100.00
15294;BME280;7748;52.474;13.454;2022-09-30T13:12:41;100674.50;;;15.91;100.00
15294;BME280;7748;52.474;13.454;2022-09-30T13:15:38;100660.53;;;15.92;100.00
15294;BME280;7748;52.474;13.454;2022-09-30T13:21:18;100670.03;;;15.82;100.00
15294;BME280;7748;52.474;13.454;2022-09-30T13:23:47;100669.97;;;15.76;100.00
15294;BME280;7748;52.474;13.454;2022-09-30T13:26:40;100672.53;;;15.71;100.00
15294;BME280;7748;52.474;13.454;2022-09-30T13:29:35;100666.44;;;15.75;100.00
15294;BME280;7748;52.474;13.454;2022-09-30T13:32:09;100668.22;;;15.76;100.00
15294;BME280;7748;52.474;13.454;2022-09-30T13:34:55;100664.00;;;15.88;100.00
15294;BME280;7748;52.474;13.454;2022-09-30T13:37:38;100665.88;;;16.01;100.00
15294;BME280;7748;52.474;13.454;2022-09-30T13:43:33;100657.41;;;16.28;100.00
15294;BME280;7748;52.474;13.454;2022-09-30T13:46:07;100667.09;;;16.37;100.00
15294;BME280;7748;52.474;13.454;2022-09-30T13:48:41;100667.22;;;16.51;100.00